sensor_id;sensor_type;location;lat;lon;timestamp;P1;durP1;ratioP1;P2;durP2;ratioP2
6442;SDS011;3254;47.372;8.512;2023-08-20T00:01:15;13.67;;;8.17;;
6442;SDS011;3254;47.372;8.512;2023-08-20T00:03:47;13.87;;;8.80;;
6442;SDS011;3254;47.372;8.512;2023-08-20T00:06:14;9.53;;;7.87;;
6442;SDS011;3254;47.372;8.512;2023-08-20T00:08:40;10.33;;;8.57;;
6442;SDS011;3254;47.372;8.512;2023-08-20T00:11:06;11.00;;;8.13;;
6442;SDS011;3254;47.372;8.512;2023-08-20T00:13:33;10.27;;;8.17;;
6442;SDS011;3254;47.372;8.512;2023-08-20T00:16:01;16.07;;;7.63;;
6442;SDS011;3254;47.372;8.512;2023-08-20T00:18:29;12.83;;;8.07;;
6442;SDS011;3254;47.372;8.512;2023-08-20T00:20:58;12.97;;;8.10;;
6442;SDS011;3254;47.372;8.512;2023-08-20T00:23:25;10.17;;;7.50;;
6442;SDS011;3254;47.372;8.512;2023-08-20T00:25:52;8.00;;;7.30;;
6442;SDS011;3254;47.372;8.512;2023-08-20T00:28:20;9.77;;;8.87;;
6442;SDS011;3254;47.372;8.512;2023-08-20T00:30:46;7.90;;;7.10;;
6442;SDS011;3254;47.372;8.512;2023-08-20T00:33:14;14.50;;;8.23;;
6442;SDS011;3254;47.372;8.512;2023-08-20T00:35:39;14.30;;;8.40;;
6442;SDS011;3254;47.372;8.512;2023-08-20T00:38:06;9.90;;;8.30;;
6442;SDS011;3254;47.372;8.512;2023-08-20T00:40:32;19.50;;;8.57;;
6442;SDS011;3254;47.372;8.512;2023-08-20T00:42:58;15.77;;;8.93;;
6442;SDS011;3254;47.372;8.512;2023-08-20T00:45:24;9.37;;;8.40;;
6442;SDS011;3254;47.372;8.512;2023-08-20T00:47:52;15.40;;;8.33;;
6442;SDS011;3254;47.372;8.512;2023-08-20T00:50:21;10.07;;;9.10;;
6442;SDS011;3254;47.372;8.512;2023-08-20T00:52:47;21.30;;;8.97;;
6442;SDS011;3254;47.372;8.512;2023-08-20T00:55:13;13.30;;;7.57;;
6442;SDS011;3254;47.372;8.512;2023-08-20T00:57:40;18.67;;;8.07;;
6442;SDS011;3254;47.372;8.512;2023-08-20T01:00:17;11.23;;;7.87;;
6442;SDS011;3254;47.372;8.512;2023-08-20T01:02:43;19.20;;;9.00;;
6442;SDS011;3254;47.372;8.512;2023-08-20T01:05:09;9.43;;;8.17;;
6442;SDS011;3254;47.372;8.512;2023-08-20T01:07:39;13.70;;;8.60;;
6442;SDS011;3254;47.372;8.512;2023-08-20T01:13:29;10.30;;;8.30;;
6442;SDS011;3254;47.372;8.512;2023-08-20T01:15:54;12.70;;;8.40;;
6442;SDS011;3254;47.372;8.512;2023-08-20T01:18:20;11.43;;;8.50;;
6442;SDS011;3254;47.372;8.512;2023-08-20T01:20:47;10.27;;;7.77;;
6442;SDS011;3254;47.372;8.512;2023-08-20T01:29:07;9.13;;;8.10;;
6442;SDS011;3254;47.372;8.512;2023-08-20T01:31:33;9.60;;;8.70;;
6442;SDS011;3254;47.372;8.512;2023-08-20T01:34:00;10.17;;;8.90;;
6442;SDS011;3254;47.372;8.512;2023-08-20T01:36:26;11.50;;;8.60;;
6442;SDS011;3254;47.372;8.512;2023-08-20T01:38:51;9.67;;;8.60;;
6442;SDS011;3254;47.372;8.512;2023-08-20T01:41:17;10.60;;;8.90;;
6442;SDS011;3254;47.372;8.512;2023-08-20T01:43:43;16.80;;;9.83;;
6442;SDS011;3254;47.372;8.512;2023-08-20T01:46:09;19.77;;;10.10;;
6442;SDS011;3254;47.372;8.512;2023-08-20T01:48:34;10.10;;;9.07;;
6442;SDS011;3254;47.372;8.512;2023-08-20T01:51:00;10.07;;;9.00;;
6442;SDS011;3254;47.372;8.512;2023-08-20T01:53:26;14.27;;;9.83;;
6442;SDS011;3254;47.372;8.512;2023-08-20T01:55:51;12.00;;;8.90;;
6442;SDS011;3254;47.372;8.512;2023-08-20T01:58:17;13.07;;;8.97;;
6442;SDS011;3254;47.372;8.512;2023-08-20T02:00:45;14.43;;;10.20;;
6442;SDS011;3254;47.372;8.512;2023-08-20T02:03:12;11.27;;;9.80;;
6442;SDS011;3254;47.372;8.512;2023-08-20T02:05:38;14.47;;;9.40;;
6442;SDS011;3254;47.372;8.512;2023-08-20T02:08:04;13.60;;;9.83;;
6442;SDS011;3254;47.372;8.512;2023-08-20T02:10:30;13.57;;;9.90;;
6442;SDS011;3254;47.372;8.512;2023-08-20T02:12:55;18.97;;;8.83;;
6442;SDS011;3254;47.372;8.512;2023-08-20T02:15:21;11.53;;;8.97;;
6442;SDS011;3254;47.372;8.512;2023-08-20T02:17:46;9.57;;;8.57;;
6442;SDS011;3254;47.372;8.512;2023-08-20T02:20:12;13.33;;;9.33;;
6442;SDS011;3254;47.372;8.512;2023-08-20T02:22:38;10.57;;;8.50;;
6442;SDS011;3254;47.372;8.512;2023-08-20T02:25:05;15.80;;;8.97;;
6442;SDS011;3254;47.372;8.512;2023-08-20T02:27:31;11.13;;;8.70;;
6442;SDS011;3254;47.372;8.512;2023-08-20T02:29:57;10.00;;;9.07;;
6442;SDS011;3254;47.372;8.512;2023-08-20T02:32:24;15.43;;;10.27;;
6442;SDS011;3254;47.372;8.512;2023-08-20T02:34:51;10.03;;;8.23;;
6442;SDS011;3254;47.372;8.512;2023-08-20T02:37:19;13.27;;;10.07;;
6442;SDS011;3254;47.372;8.512;2023-08-20T02:39:48;12.50;;;10.00;;
6442;SDS011;3254;47.372;8.512;2023-08-20T02:42:15;10.73;;;8.60;;
6442;SDS011;3254;47.372;8.512;2023-08-20T02:44:42;16.57;;;9.40;;
6442;SDS011;3254;47.372;8.512;2023-08-20T02:47:07;10.60;;;9.03;;
6442;SDS011;3254;47.372;8.512;2023-08-20T02:49:33;11.50;;;10.00;;
6442;SDS011;3254;47.372;8.512;2023-08-20T02:51:58;9.73;;;8.57;;
6442;SDS011;3254;47.372;8.512;2023-08-20T02:54:25;18.63;;;9.23;;
6442;SDS011;3254;47.372;8.512;2023-08-20T02:56:51;12.13;;;8.17;;
6442;SDS011;3254;47.372;8.512;2023-08-20T02:59:16;11.90;;;9.30;;
6442;SDS011;3254;47.372;8.512;2023-08-20T03:01:43;15.70;;;9.93;;
6442;SDS011;3254;47.372;8.512;2023-08-20T03:04:09;12.63;;;9.53;;
6442;SDS011;3254;47.372;8.512;2023-08-20T03:06:35;14.83;;;10.30;;
6442;SDS011;3254;47.372;8.512;2023-08-20T03:09:00;11.70;;;10.07;;
6442;SDS011;3254;47.372;8.512;2023-08-20T03:11:26;10.83;;;9.63;;
6442;SDS011;3254;47.372;8.512;2023-08-20T03:13:51;17.10;;;10.20;;
6442;SDS011;3254;47.372;8.512;2023-08-20T03:16:19;19.90;;;10.07;;
6442;SDS011;3254;47.372;8.512;2023-08-20T03:18:45;10.37;;;9.00;;
6442;SDS011;3254;47.372;8.512;2023-08-20T03:21:10;10.30;;;9.30;;
6442;SDS011;3254;47.372;8.512;2023-08-20T03:23:36;19.73;;;10.73;;
6442;SDS011;3254;47.372;8.512;2023-08-20T03:26:02;19.83;;;9.80;;
6442;SDS011;3254;47.372;8.512;2023-08-20T03:28:28;13.03;;;10.20;;
6442;SDS011;3254;47.372;8.512;2023-08-20T03:30:53;14.20;;;9.67;;
6442;SDS011;3254;47.372;8.512;2023-08-20T03:33:20;14.07;;;10.27;;
6442;SDS011;3254;47.372;8.512;2023-08-20T03:35:46;12.43;;;10.10;;
6442;SDS011;3254;47.372;8.512;2023-08-20T03:38:12;9.70;;;8.80;;
6442;SDS011;3254;47.372;8.512;2023-08-20T03:40:37;10.83;;;8.57;;
6442;SDS011;3254;47.372;8.512;2023-08-20T03:43:05;15.00;;;10.57;;
6442;SDS011;3254;47.372;8.512;2023-08-20T03:45:32;11.83;;;9.07;;
6442;SDS011;3254;47.372;8.512;2023-08-20T03:47:58;12.03;;;8.60;;
6442;SDS011;3254;47.372;8.512;2023-08-20T03:50:23;12.90;;;9.47;;
6442;SDS011;3254;47.372;8.512;2023-08-20T03:52:49;27.37;;;9.90;;
6442;SDS011;3254;47.372;8.512;2023-08-20T03:55:16;15.97;;;9.60;;
6442;SDS011;3254;47.372;8.512;2023-08-20T03:57:42;19.43;;;9.97;;
6442;SDS011;3254;47.372;8.512;2023-08-20T04:00:12;12.70;;;9.40;;
6442;SDS011;3254;47.372;8.512;2023-08-20T04:02:39;16.77;;;9.50;;
6442;SDS011;3254;47.372;8.512;2023-08-20T04:05:05;14.93;;;9.90;;
6442;SDS011;3254;47.372;8.512;2023-08-20T04:07:30;15.03;;;10.20;;
6442;SDS011;3254;47.372;8.512;2023-08-20T04:09:58;10.97;;;9.73;;
6442;SDS011;3254;47.372;8.512;2023-08-20T04:12:24;17.00;;;9.60;;
6442;SDS011;3254;47.372;8.512;2023-08-20T04:14:50;13.40;;;10.43;;
6442;SDS011;3254;47.372;8.512;2023-08-20T04:17:16;9.93;;;9.03;;
6442;SDS011;3254;47.372;8.512;2023-08-20T04:19:42;14.20;;;9.80;;
6442;SDS011;3254;47.372;8.512;2023-08-20T04:22:08;13.23;;;10.37;;
6442;SDS011;3254;47.372;8.512;2023-08-20T04:24:34;17.17;;;10.50;;
6442;SDS011;3254;47.372;8.512;2023-08-20T04:27:00;13.67;;;9.70;;
6442;SDS011;3254;47.372;8.512;2023-08-20T04:29:28;12.50;;;10.70;;
6442;SDS011;3254;47.372;8.512;2023-08-20T04:31:54;14.23;;;10.77;;
6442;SDS011;3254;47.372;8.512;2023-08-20T04:34:20;14.67;;;10.90;;
6442;SDS011;3254;47.372;8.512;2023-08-20T04:36:45;12.23;;;11.03;;
6442;SDS011;3254;47.372;8.512;2023-08-20T04:39:17;17.20;;;10.83;;
6442;SDS011;3254;47.372;8.512;2023-08-20T04:41:44;18.83;;;11.47;;
6442;SDS011;3254;47.372;8.512;2023-08-20T04:44:09;14.67;;;11.10;;
6442;SDS011;3254;47.372;8.512;2023-08-20T04:46:35;14.30;;;9.60;;
6442;SDS011;3254;47.372;8.512;2023-08-20T04:49:01;14.90;;;10.40;;
6442;SDS011;3254;47.372;8.512;2023-08-20T04:51:28;18.17;;;10.90;;
6442;SDS011;3254;47.372;8.512;2023-08-20T04:53:54;16.93;;;10.30;;
6442;SDS011;3254;47.372;8.512;2023-08-20T04:56:20;12.20;;;10.70;;
6442;SDS011;3254;47.372;8.512;2023-08-20T04:58:45;10.97;;;8.73;;
6442;SDS011;3254;47.372;8.512;2023-08-20T05:01:11;14.87;;;9.50;;
6442;SDS011;3254;47.372;8.512;2023-08-20T05:03:37;13.50;;;10.20;;
6442;SDS011;3254;47.372;8.512;2023-08-20T05:06:03;12.20;;;9.90;;
6442;SDS011;3254;47.372;8.512;2023-08-20T05:08:29;10.67;;;9.67;;
6442;SDS011;3254;47.372;8.512;2023-08-20T05:10:56;11.20;;;9.10;;
6442;SDS011;3254;47.372;8.512;2023-08-20T05:13:22;17.27;;;10.40;;
6442;SDS011;3254;47.372;8.512;2023-08-20T05:15:49;14.10;;;10.67;;
6442;SDS011;3254;47.372;8.512;2023-08-20T05:18:16;15.70;;;9.53;;
6442;SDS011;3254;47.372;8.512;2023-08-20T05:20:43;13.53;;;9.80;;
6442;SDS011;3254;47.372;8.512;2023-08-20T05:23:08;19.03;;;9.63;;
6442;SDS011;3254;47.372;8.512;2023-08-20T05:25:34;13.23;;;10.53;;
6442;SDS011;3254;47.372;8.512;2023-08-20T05:28:01;19.40;;;10.23;;
6442;SDS011;3254;47.372;8.512;2023-08-20T05:30:26;25.50;;;9.67;;
6442;SDS011;3254;47.372;8.512;2023-08-20T05:32:53;15.83;;;9.70;;
6442;SDS011;3254;47.372;8.512;2023-08-20T05:35:20;12.40;;;9.73;;
6442;SDS011;3254;47.372;8.512;2023-08-20T05:37:45;16.23;;;10.30;;
6442;SDS011;3254;47.372;8.512;2023-08-20T05:40:11;10.83;;;8.60;;
6442;SDS011;3254;47.372;8.512;2023-08-20T05:42:39;14.17;;;9.53;;
6442;SDS011;3254;47.372;8.512;2023-08-20T05:45:05;13.17;;;9.80;;
6442;SDS011;3254;47.372;8.512;2023-08-20T05:47:32;13.13;;;10.07;;
6442;SDS011;3254;47.372;8.512;2023-08-20T05:49:59;11.53;;;8.53;;
6442;SDS011;3254;47.372;8.512;2023-08-20T05:52:25;13.13;;;9.50;;
6442;SDS011;3254;47.372;8.512;2023-08-20T05:54:50;14.20;;;9.97;;
6442;SDS011;3254;47.372;8.512;2023-08-20T05:57:16;17.10;;;8.83;;
6442;SDS011;3254;47.372;8.512;2023-08-20T05:59:42;14.73;;;9.33;;
6442;SDS011;3254;47.372;8.512;2023-08-20T06:02:10;12.00;;;9.13;;
6442;SDS011;3254;47.372;8.512;2023-08-20T06:04:42;15.97;;;10.37;;
6442;SDS011;3254;47.372;8.512;2023-08-20T06:07:09;17.13;;;9.97;;
6442;SDS011;3254;47.372;8.512;2023-08-20T06:09:34;13.33;;;9.50;;
6442;SDS011;3254;47.372;8.512;2023-08-20T06:12:00;13.97;;;9.50;;
6442;SDS011;3254;47.372;8.512;2023-08-20T06:14:26;15.23;;;9.83;;
6442;SDS011;3254;47.372;8.512;2023-08-20T06:16:52;12.57;;;10.10;;
6442;SDS011;3254;47.372;8.512;2023-08-20T06:19:19;18.90;;;9.57;;
6442;SDS011;3254;47.372;8.512;2023-08-20T06:21:45;12.10;;;9.47;;
6442;SDS011;3254;47.372;8.512;2023-08-20T06:24:11;21.53;;;9.53;;
6442;SDS011;3254;47.372;8.512;2023-08-20T06:26:37;18.90;;;9.93;;
6442;SDS011;3254;47.372;8.512;2023-08-20T06:29:02;11.00;;;9.90;;
6442;SDS011;3254;47.372;8.512;2023-08-20T06:31:29;14.07;;;9.40;;
6442;SDS011;3254;47.372;8.512;2023-08-20T06:33:54;20.23;;;9.90;;
6442;SDS011;3254;47.372;8.512;2023-08-20T06:36:21;13.30;;;9.63;;
6442;SDS011;3254;47.372;8.512;2023-08-20T06:38:49;14.47;;;10.33;;
6442;SDS011;3254;47.372;8.512;2023-08-20T06:41:15;11.60;;;9.67;;
6442;SDS011;3254;47.372;8.512;2023-08-20T06:43:42;14.10;;;10.60;;
6442;SDS011;3254;47.372;8.512;2023-08-20T06:46:07;25.47;;;11.27;;
6442;SDS011;3254;47.372;8.512;2023-08-20T06:48:35;13.53;;;9.93;;
6442;SDS011;3254;47.372;8.512;2023-08-20T06:51:13;17.23;;;9.40;;
6442;SDS011;3254;47.372;8.512;2023-08-20T06:53:43;10.63;;;9.43;;
6442;SDS011;3254;47.372;8.512;2023-08-20T06:56:09;11.87;;;8.40;;
6442;SDS011;3254;47.372;8.512;2023-08-20T06:58:38;11.83;;;9.60;;
6442;SDS011;3254;47.372;8.512;2023-08-20T07:01:05;15.50;;;9.40;;
6442;SDS011;3254;47.372;8.512;2023-08-20T07:03:37;10.43;;;8.67;;
6442;SDS011;3254;47.372;8.512;2023-08-20T07:06:04;11.23;;;9.13;;
6442;SDS011;3254;47.372;8.512;2023-08-20T07:08:30;13.40;;;10.03;;
6442;SDS011;3254;47.372;8.512;2023-08-20T07:10:55;9.90;;;8.90;;
6442;SDS011;3254;47.372;8.512;2023-08-20T07:13:22;15.13;;;9.43;;
6442;SDS011;3254;47.372;8.512;2023-08-20T07:15:48;15.23;;;9.50;;
6442;SDS011;3254;47.372;8.512;2023-08-20T07:18:14;15.33;;;9.37;;
6442;SDS011;3254;47.372;8.512;2023-08-20T07:20:43;12.67;;;10.20;;
6442;SDS011;3254;47.372;8.512;2023-08-20T07:23:09;19.57;;;9.93;;
6442;SDS011;3254;47.372;8.512;2023-08-20T07:25:37;17.27;;;8.97;;
6442;SDS011;3254;47.372;8.512;2023-08-20T07:28:04;11.03;;;8.47;;
6442;SDS011;3254;47.372;8.512;2023-08-20T07:30:30;21.17;;;9.50;;
6442;SDS011;3254;47.372;8.512;2023-08-20T07:32:56;10.63;;;8.60;;
6442;SDS011;3254;47.372;8.512;2023-08-20T07:35:22;12.30;;;7.70;;
6442;SDS011;3254;47.372;8.512;2023-08-20T07:37:48;8.70;;;7.90;;
6442;SDS011;3254;47.372;8.512;2023-08-20T07:40:14;11.50;;;7.97;;
6442;SDS011;3254;47.372;8.512;2023-08-20T07:42:40;23.43;;;8.83;;
6442;SDS011;3254;47.372;8.512;2023-08-20T07:45:07;15.30;;;8.00;;
6442;SDS011;3254;47.372;8.512;2023-08-20T07:47:33;13.23;;;7.03;;
6442;SDS011;3254;47.372;8.512;2023-08-20T07:50:00;8.83;;;7.53;;
6442;SDS011;3254;47.372;8.512;2023-08-20T07:52:26;17.87;;;7.30;;
6442;SDS011;3254;47.372;8.512;2023-08-20T07:54:51;9.50;;;7.07;;
6442;SDS011;3254;47.372;8.512;2023-08-20T07:57:17;10.83;;;7.80;;
6442;SDS011;3254;47.372;8.512;2023-08-20T07:59:43;7.70;;;7.00;;
6442;SDS011;3254;47.372;8.512;2023-08-20T08:02:10;21.97;;;7.83;;
6442;SDS011;3254;47.372;8.512;2023-08-20T08:04:38;7.60;;;6.90;;
6442;SDS011;3254;47.372;8.512;2023-08-20T08:07:05;10.27;;;6.57;;
6442;SDS011;3254;47.372;8.512;2023-08-20T08:09:31;8.60;;;7.70;;
6442;SDS011;3254;47.372;8.512;2023-08-20T08:11:58;9.70;;;7.27;;
6442;SDS011;3254;47.372;8.512;2023-08-20T08:14:25;8.77;;;7.97;;
6442;SDS011;3254;47.372;8.512;2023-08-20T08:16:51;9.67;;;6.30;;
6442;SDS011;3254;47.372;8.512;2023-08-20T08:19:16;12.30;;;7.40;;
6442;SDS011;3254;47.372;8.512;2023-08-20T08:21:43;9.03;;;6.80;;
6442;SDS011;3254;47.372;8.512;2023-08-20T08:24:09;13.90;;;7.70;;
6442;SDS011;3254;47.372;8.512;2023-08-20T08:26:36;8.17;;;6.73;;
6442;SDS011;3254;47.372;8.512;2023-08-20T08:29:04;9.73;;;6.43;;
6442;SDS011;3254;47.372;8.512;2023-08-20T08:31:30;10.17;;;6.40;;
6442;SDS011;3254;47.372;8.512;2023-08-20T08:33:56;8.03;;;7.23;;
6442;SDS011;3254;47.372;8.512;2023-08-20T08:36:22;7.30;;;6.67;;
6442;SDS011;3254;47.372;8.512;2023-08-20T08:38:51;8.60;;;6.03;;
6442;SDS011;3254;47.372;8.512;2023-08-20T08:41:17;7.80;;;6.63;;
6442;SDS011;3254;47.372;8.512;2023-08-20T08:43:47;9.90;;;6.40;;
6442;SDS011;3254;47.372;8.512;2023-08-20T08:46:14;8.83;;;6.50;;
6442;SDS011;3254;47.372;8.512;2023-08-20T08:48:42;11.10;;;6.57;;
6442;SDS011;3254;47.372;8.512;2023-08-20T08:51:10;8.80;;;7.33;;
6442;SDS011;3254;47.372;8.512;2023-08-20T08:53:41;10.83;;;7.57;;
6442;SDS011;3254;47.372;8.512;2023-08-20T08:56:07;17.33;;;6.33;;
6442;SDS011;3254;47.372;8.512;2023-08-20T08:58:33;7.90;;;6.63;;
6442;SDS011;3254;47.372;8.512;2023-08-20T09:00:59;9.53;;;6.10;;
6442;SDS011;3254;47.372;8.512;2023-08-20T09:03:24;12.57;;;6.97;;
6442;SDS011;3254;47.372;8.512;2023-08-20T09:05:54;8.93;;;6.30;;
6442;SDS011;3254;47.372;8.512;2023-08-20T09:08:29;8.17;;;5.63;;
6442;SDS011;3254;47.372;8.512;2023-08-20T09:10:56;8.93;;;6.00;;
6442;SDS011;3254;47.372;8.512;2023-08-20T09:13:23;9.73;;;5.90;;
6442;SDS011;3254;47.372;8.512;2023-08-20T09:15:59;7.33;;;6.03;;
6442;SDS011;3254;47.372;8.512;2023-08-20T09:18:29;13.80;;;5.83;;
6442;SDS011;3254;47.372;8.512;2023-08-20T09:20:56;11.87;;;6.10;;
6442;SDS011;3254;47.372;8.512;2023-08-20T09:23:26;9.10;;;5.60;;
6442;SDS011;3254;47.372;8.512;2023-08-20T09:25:54;10.40;;;6.27;;
6442;SDS011;3254;47.372;8.512;2023-08-20T09:28:20;6.37;;;5.80;;
6442;SDS011;3254;47.372;8.512;2023-08-20T09:30:59;5.97;;;5.47;;
6442;SDS011;3254;47.372;8.512;2023-08-20T09:33:29;15.73;;;6.10;;
6442;SDS011;3254;47.372;8.512;2023-08-20T09:35:54;8.93;;;5.73;;
6442;SDS011;3254;47.372;8.512;2023-08-20T09:38:20;11.33;;;5.87;;
6442;SDS011;3254;47.372;8.512;2023-08-20T09:40:47;11.60;;;5.97;;
6442;SDS011;3254;47.372;8.512;2023-08-20T09:43:17;7.23;;;6.17;;
6442;SDS011;3254;47.372;8.512;2023-08-20T09:45:44;7.30;;;5.90;;
6442;SDS011;3254;47.372;8.512;2023-08-20T09:48:11;8.07;;;5.33;;
6442;SDS011;3254;47.372;8.512;2023-08-20T09:50:46;8.00;;;5.70;;
6442;SDS011;3254;47.372;8.512;2023-08-20T09:53:25;10.83;;;6.07;;
6442;SDS011;3254;47.372;8.512;2023-08-20T09:56:49;9.07;;;5.87;;
6442;SDS011;3254;47.372;8.512;2023-08-20T09:58:55;18.30;;;6.20;;
6442;SDS011;3254;47.372;8.512;2023-08-20T10:01:22;9.90;;;5.70;;
6442;SDS011;3254;47.372;8.512;2023-08-20T10:03:51;10.40;;;5.80;;
6442;SDS011;3254;47.372;8.512;2023-08-20T10:06:18;6.37;;;5.87;;
6442;SDS011;3254;47.372;8.512;2023-08-20T10:08:45;11.63;;;5.50;;
6442;SDS011;3254;47.372;8.512;2023-08-20T10:11:12;6.27;;;4.93;;
6442;SDS011;3254;47.372;8.512;2023-08-20T10:13:38;7.97;;;5.90;;
6442;SDS011;3254;47.372;8.512;2023-08-20T10:16:04;11.20;;;5.70;;
6442;SDS011;3254;47.372;8.512;2023-08-20T10:18:30;8.93;;;5.80;;
6442;SDS011;3254;47.372;8.512;2023-08-20T10:20:58;7.63;;;6.23;;
6442;SDS011;3254;47.372;8.512;2023-08-20T10:23:25;9.27;;;5.43;;
6442;SDS011;3254;47.372;8.512;2023-08-20T10:25:52;8.50;;;5.73;;
6442;SDS011;3254;47.372;8.512;2023-08-20T10:31:08;8.87;;;5.97;;
6442;SDS011;3254;47.372;8.512;2023-08-20T10:36:16;8.30;;;6.07;;
6442;SDS011;3254;47.372;8.512;2023-08-20T10:38:47;6.30;;;5.83;;
6442;SDS011;3254;47.372;8.512;2023-08-20T10:41:15;6.40;;;5.80;;
6442;SDS011;3254;47.372;8.512;2023-08-20T10:43:47;6.83;;;6.20;;
6442;SDS011;3254;47.372;8.512;2023-08-20T10:46:17;9.23;;;6.07;;
6442;SDS011;3254;47.372;8.512;2023-08-20T10:51:17;7.37;;;4.77;;
6442;SDS011;3254;47.372;8.512;2023-08-20T10:54:02;10.43;;;6.33;;
6442;SDS011;3254;47.372;8.512;2023-08-20T10:56:38;5.57;;;5.10;;
6442;SDS011;3254;47.372;8.512;2023-08-20T10:59:09;7.10;;;5.43;;
6442;SDS011;3254;47.372;8.512;2023-08-20T11:01:52;5.70;;;5.20;;
6442;SDS011;3254;47.372;8.512;2023-08-20T11:04:21;5.90;;;5.30;;
6442;SDS011;3254;47.372;8.512;2023-08-20T11:06:54;10.10;;;5.17;;
6442;SDS011;3254;47.372;8.512;2023-08-20T11:09:24;6.27;;;5.43;;
6442;SDS011;3254;47.372;8.512;2023-08-20T11:11:51;8.10;;;5.63;;
6442;SDS011;3254;47.372;8.512;2023-08-20T11:14:19;6.90;;;6.10;;
6442;SDS011;3254;47.372;8.512;2023-08-20T11:16:45;9.43;;;5.73;;
6442;SDS011;3254;47.372;8.512;2023-08-20T11:19:14;6.40;;;5.77;;
6442;SDS011;3254;47.372;8.512;2023-08-20T11:21:43;7.00;;;6.50;;
6442;SDS011;3254;47.372;8.512;2023-08-20T11:24:12;11.77;;;5.80;;
6442;SDS011;3254;47.372;8.512;2023-08-20T11:26:41;10.03;;;5.87;;
6442;SDS011;3254;47.372;8.512;2023-08-20T11:29:09;12.20;;;5.87;;
6442;SDS011;3254;47.372;8.512;2023-08-20T11:31:37;9.90;;;5.70;;
6442;SDS011;3254;47.372;8.512;2023-08-20T11:34:03;7.80;;;5.73;;
6442;SDS011;3254;47.372;8.512;2023-08-20T11:36:29;7.63;;;5.87;;
6442;SDS011;3254;47.372;8.512;2023-08-20T11:38:55;8.13;;;6.03;;
6442;SDS011;3254;47.372;8.512;2023-08-20T11:41:21;5.77;;;5.23;;
6442;SDS011;3254;47.372;8.512;2023-08-20T11:43:48;9.83;;;5.60;;
6442;SDS011;3254;47.372;8.512;2023-08-20T11:46:15;8.10;;;5.57;;
6442;SDS011;3254;47.372;8.512;2023-08-20T11:49:00;8.70;;;6.00;;
6442;SDS011;3254;47.372;8.512;2023-08-20T11:51:40;5.80;;;5.30;;
6442;SDS011;3254;47.372;8.512;2023-08-20T11:54:15;6.53;;;5.07;;
6442;SDS011;3254;47.372;8.512;2023-08-20T11:56:43;5.47;;;4.97;;
6442;SDS011;3254;47.372;8.512;2023-08-20T11:59:11;5.70;;;5.17;;
6442;SDS011;3254;47.372;8.512;2023-08-20T12:01:39;13.07;;;5.20;;
6442;SDS011;3254;47.372;8.512;2023-08-20T12:04:06;4.83;;;4.20;;
6442;SDS011;3254;47.372;8.512;2023-08-20T12:06:33;11.13;;;5.00;;
6442;SDS011;3254;47.372;8.512;2023-08-20T12:09:00;5.67;;;5.17;;
6442;SDS011;3254;47.372;8.512;2023-08-20T12:11:30;5.40;;;4.40;;
6442;SDS011;3254;47.372;8.512;2023-08-20T12:13:56;4.77;;;4.40;;
6442;SDS011;3254;47.372;8.512;2023-08-20T12:16:22;5.57;;;4.90;;
6442;SDS011;3254;47.372;8.512;2023-08-20T12:18:49;8.63;;;4.90;;
6442;SDS011;3254;47.372;8.512;2023-08-20T12:21:15;7.70;;;4.60;;
6442;SDS011;3254;47.372;8.512;2023-08-20T12:23:41;4.87;;;4.47;;
6442;SDS011;3254;47.372;8.512;2023-08-20T12:26:07;7.77;;;4.10;;
6442;SDS011;3254;47.372;8.512;2023-08-20T12:28:37;5.53;;;4.73;;
6442;SDS011;3254;47.372;8.512;2023-08-20T12:31:02;6.83;;;4.60;;
6442;SDS011;3254;47.372;8.512;2023-08-20T12:33:28;5.00;;;4.60;;
6442;SDS011;3254;47.372;8.512;2023-08-20T12:35:54;3.97;;;3.67;;
6442;SDS011;3254;47.372;8.512;2023-08-20T12:38:20;4.53;;;3.97;;
6442;SDS011;3254;47.372;8.512;2023-08-20T12:40:48;5.27;;;3.97;;
6442;SDS011;3254;47.372;8.512;2023-08-20T12:43:15;5.60;;;4.10;;
6442;SDS011;3254;47.372;8.512;2023-08-20T12:45:40;12.40;;;4.40;;
6442;SDS011;3254;47.372;8.512;2023-08-20T12:48:07;5.90;;;5.07;;
6442;SDS011;3254;47.372;8.512;2023-08-20T12:50:34;6.03;;;4.30;;
6442;SDS011;3254;47.372;8.512;2023-08-20T12:53:00;5.83;;;4.57;;
6442;SDS011;3254;47.372;8.512;2023-08-20T12:55:25;6.63;;;3.93;;
6442;SDS011;3254;47.372;8.512;2023-08-20T12:57:53;9.23;;;5.13;;
6442;SDS011;3254;47.372;8.512;2023-08-20T13:00:20;11.13;;;4.57;;
6442;SDS011;3254;47.372;8.512;2023-08-20T13:02:47;10.47;;;4.47;;
6442;SDS011;3254;47.372;8.512;2023-08-20T13:05:13;8.47;;;4.73;;
6442;SDS011;3254;47.372;8.512;2023-08-20T13:07:39;9.30;;;5.13;;
6442;SDS011;3254;47.372;8.512;2023-08-20T13:10:06;8.20;;;4.80;;
6442;SDS011;3254;47.372;8.512;2023-08-20T13:12:37;6.90;;;4.77;;
6442;SDS011;3254;47.372;8.512;2023-08-20T13:15:06;7.60;;;4.67;;
6442;SDS011;3254;47.372;8.512;2023-08-20T13:17:32;7.57;;;4.57;;
6442;SDS011;3254;47.372;8.512;2023-08-20T13:19:58;7.83;;;4.50;;
6442;SDS011;3254;47.372;8.512;2023-08-20T13:22:23;9.63;;;4.30;;
6442;SDS011;3254;47.372;8.512;2023-08-20T13:24:49;10.27;;;4.53;;
6442;SDS011;3254;47.372;8.512;2023-08-20T13:27:14;10.07;;;5.00;;
6442;SDS011;3254;47.372;8.512;2023-08-20T13:29:40;4.70;;;4.00;;
6442;SDS011;3254;47.372;8.512;2023-08-20T13:32:06;4.63;;;4.23;;
6442;SDS011;3254;47.372;8.512;2023-08-20T13:34:31;4.63;;;4.00;;
6442;SDS011;3254;47.372;8.512;2023-08-20T13:36:57;4.20;;;3.80;;
6442;SDS011;3254;47.372;8.512;2023-08-20T13:39:24;5.13;;;4.67;;
6442;SDS011;3254;47.372;8.512;2023-08-20T13:41:51;11.37;;;3.50;;
6442;SDS011;3254;47.372;8.512;2023-08-20T13:44:17;6.33;;;4.03;;
6442;SDS011;3254;47.372;8.512;2023-08-20T13:46:45;4.57;;;4.20;;
6442;SDS011;3254;47.372;8.512;2023-08-20T13:49:10;6.50;;;4.73;;
6442;SDS011;3254;47.372;8.512;2023-08-20T13:51:36;6.40;;;4.53;;
6442;SDS011;3254;47.372;8.512;2023-08-20T13:54:03;4.63;;;4.23;;
6442;SDS011;3254;47.372;8.512;2023-08-20T13:56:30;9.03;;;4.20;;
6442;SDS011;3254;47.372;8.512;2023-08-20T13:58:57;6.77;;;4.73;;
6442;SDS011;3254;47.372;8.512;2023-08-20T14:01:23;7.27;;;4.17;;
6442;SDS011;3254;47.372;8.512;2023-08-20T14:03:49;4.60;;;3.97;;
6442;SDS011;3254;47.372;8.512;2023-08-20T14:06:18;6.83;;;3.90;;
6442;SDS011;3254;47.372;8.512;2023-08-20T14:08:44;8.93;;;3.90;;
6442;SDS011;3254;47.372;8.512;2023-08-20T14:11:10;6.00;;;3.80;;
6442;SDS011;3254;47.372;8.512;2023-08-20T14:13:36;5.33;;;3.97;;
6442;SDS011;3254;47.372;8.512;2023-08-20T14:16:02;9.53;;;4.10;;
6442;SDS011;3254;47.372;8.512;2023-08-20T14:18:28;7.20;;;4.40;;
6442;SDS011;3254;47.372;8.512;2023-08-20T14:20:54;5.63;;;4.10;;
6442;SDS011;3254;47.372;8.512;2023-08-20T14:23:21;8.80;;;4.03;;
6442;SDS011;3254;47.372;8.512;2023-08-20T14:25:47;5.43;;;3.77;;
6442;SDS011;3254;47.372;8.512;2023-08-20T14:28:12;7.07;;;4.17;;
6442;SDS011;3254;47.372;8.512;2023-08-20T14:30:39;4.73;;;4.30;;
6442;SDS011;3254;47.372;8.512;2023-08-20T14:33:05;3.83;;;3.60;;
6442;SDS011;3254;47.372;8.512;2023-08-20T14:35:32;5.90;;;3.73;;
6442;SDS011;3254;47.372;8.512;2023-08-20T14:37:58;4.33;;;3.70;;
6442;SDS011;3254;47.372;8.512;2023-08-20T14:40:23;4.03;;;3.60;;
6442;SDS011;3254;47.372;8.512;2023-08-20T14:42:49;8.00;;;3.70;;
6442;SDS011;3254;47.372;8.512;2023-08-20T14:45:15;11.75;;;3.83;;
6442;SDS011;3254;47.372;8.512;2023-08-20T14:47:42;8.40;;;4.13;;
6442;SDS011;3254;47.372;8.512;2023-08-20T14:50:08;7.03;;;3.30;;
6442;SDS011;3254;47.372;8.512;2023-08-20T14:52:34;3.80;;;3.50;;
6442;SDS011;3254;47.372;8.512;2023-08-20T14:55:00;3.67;;;3.20;;
6442;SDS011;3254;47.372;8.512;2023-08-20T14:57:26;6.50;;;3.47;;
6442;SDS011;3254;47.372;8.512;2023-08-20T14:59:51;6.68;;;3.55;;
6442;SDS011;3254;47.372;8.512;2023-08-20T15:02:17;6.55;;;3.95;;
6442;SDS011;3254;47.372;8.512;2023-08-20T15:04:43;4.75;;;4.07;;
6442;SDS011;3254;47.372;8.512;2023-08-20T15:07:09;3.67;;;3.23;;
6442;SDS011;3254;47.372;8.512;2023-08-20T15:09:36;5.00;;;3.60;;
6442;SDS011;3254;47.372;8.512;2023-08-20T15:12:02;6.57;;;3.13;;
6442;SDS011;3254;47.372;8.512;2023-08-20T15:14:28;5.32;;;3.33;;
6442;SDS011;3254;47.372;8.512;2023-08-20T15:16:55;8.40;;;3.45;;
6442;SDS011;3254;47.372;8.512;2023-08-20T15:19:21;4.30;;;3.07;;
6442;SDS011;3254;47.372;8.512;2023-08-20T15:21:46;5.77;;;4.10;;